T7GPM LIRZ-LICJ
Flight info
| Callsign | T7GPM |
|---|---|
| Flight time | 1h 15m |
| Altitude | 19000 |
| Route | GITOD5N GITOD L865 GIKIN/N0359F330 DCT TURMO DCT RONAB DCT GIANO GIANO3N |
| Aircraft | P180/L-SDE3FGHIRWY/C |
Departure
| Time | 2026-04-27 20:48 |
|---|---|
| Airport | Perugia San Francesco d'Assisi – Umbria International Airport (LIRZ) |
Arrival
| Time | 2026-04-27 22:04 |
|---|---|
| Airport | Falcone–Borsellino Airport (LICJ) |
| Time | Latitude | Longitude | Altitude | Speed | Heading |
|---|---|---|---|---|---|
| 2026-04-27 20:34 | 43.09427 | 12.50444 | 680 ft | 0 kts | 249° |
| 2026-04-27 20:40 | 43.09426 | 12.50444 | 680 ft | 0 kts | 251° |
| 2026-04-27 20:40 | 43.09431 | 12.50432 | 680 ft | 3 kts | 326° |
| 2026-04-27 20:40 | 43.09452 | 12.50450 | 681 ft | 5 kts | 44° |
| 2026-04-27 20:41 | 43.09481 | 12.50474 | 681 ft | 5 kts | 359° |
| 2026-04-27 20:41 | 43.09517 | 12.50459 | 681 ft | 6 kts | 354° |
| 2026-04-27 20:41 | 43.09551 | 12.50493 | 682 ft | 8 kts | 62° |
| 2026-04-27 20:41 | 43.09576 | 12.50567 | 682 ft | 9 kts | 66° |
| 2026-04-27 20:42 | 43.09602 | 12.50647 | 683 ft | 10 kts | 66° |
| 2026-04-27 20:42 | 43.09630 | 12.50732 | 683 ft | 10 kts | 65° |
| 2026-04-27 20:42 | 43.09659 | 12.50819 | 682 ft | 10 kts | 65° |
| 2026-04-27 20:42 | 43.09690 | 12.50911 | 683 ft | 11 kts | 66° |
| 2026-04-27 20:43 | 43.09721 | 12.51008 | 684 ft | 11 kts | 65° |
| 2026-04-27 20:43 | 43.09753 | 12.51106 | 682 ft | 12 kts | 66° |
| 2026-04-27 20:43 | 43.09815 | 12.51169 | 685 ft | 12 kts | 14° |
| 2026-04-27 20:43 | 43.09893 | 12.51196 | 686 ft | 11 kts | 14° |
| 2026-04-27 20:44 | 43.09970 | 12.51223 | 687 ft | 11 kts | 13° |
| 2026-04-27 20:44 | 43.10045 | 12.51248 | 688 ft | 11 kts | 14° |
| 2026-04-27 20:44 | 43.10123 | 12.51276 | 687 ft | 13 kts | 14° |
| 2026-04-27 20:44 | 43.10214 | 12.51308 | 690 ft | 14 kts | 14° |
| 2026-04-27 20:45 | 43.10315 | 12.51344 | 691 ft | 16 kts | 14° |
| 2026-04-27 20:45 | 43.10425 | 12.51382 | 692 ft | 17 kts | 14° |
| 2026-04-27 20:45 | 43.10541 | 12.51422 | 691 ft | 17 kts | 14° |
| 2026-04-27 20:45 | 43.10659 | 12.51464 | 690 ft | 18 kts | 14° |
| 2026-04-27 20:46 | 43.10758 | 12.51502 | 696 ft | 11 kts | 28° |
| 2026-04-27 20:46 | 43.10779 | 12.51582 | 694 ft | 0 kts | 102° |
| 2026-04-27 20:46 | 43.10777 | 12.51596 | 693 ft | 6 kts | 104° |
| 2026-04-27 20:47 | 43.10747 | 12.51704 | 678 ft | 15 kts | 136° |
| 2026-04-27 20:47 | 43.10696 | 12.51708 | 679 ft | 0 kts | 193° |
| 2026-04-27 20:47 | 43.10522 | 12.51648 | 680 ft | 77 kts | 194° |
| 2026-04-27 20:48 | 43.09688 | 12.51357 | 680 ft | 159 kts | 194° |
| 2026-04-27 20:48 | 43.08548 | 12.50967 | 1250 ft | 176 kts | 194° |
| 2026-04-27 20:48 | 43.07339 | 12.50549 | 1724 ft | 173 kts | 194° |
| 2026-04-27 20:48 | 43.06215 | 12.49942 | 2038 ft | 179 kts | 220° |
| 2026-04-27 20:49 | 43.05339 | 12.48700 | 2346 ft | 187 kts | 223° |
| 2026-04-27 20:49 | 43.04203 | 12.47774 | 2660 ft | 194 kts | 205° |
| 2026-04-27 20:49 | 43.02952 | 12.47031 | 2998 ft | 196 kts | 206° |
| 2026-04-27 20:49 | 43.01744 | 12.46169 | 3393 ft | 196 kts | 210° |
| 2026-04-27 20:50 | 43.00550 | 12.45277 | 3783 ft | 196 kts | 209° |
| 2026-04-27 20:50 | 42.99335 | 12.44420 | 4180 ft | 196 kts | 207° |
| 2026-04-27 20:50 | 42.98109 | 12.43584 | 4580 ft | 197 kts | 207° |
| 2026-04-27 20:50 | 42.96883 | 12.42744 | 4981 ft | 197 kts | 207° |
| 2026-04-27 20:51 | 42.95657 | 12.41895 | 5374 ft | 197 kts | 207° |
| 2026-04-27 20:51 | 42.94446 | 12.41049 | 5729 ft | 200 kts | 207° |
| 2026-04-27 20:51 | 42.93198 | 12.40179 | 6060 ft | 202 kts | 206° |
| 2026-04-27 20:51 | 42.91931 | 12.39305 | 6394 ft | 204 kts | 205° |
| 2026-04-27 20:52 | 42.90662 | 12.38433 | 6718 ft | 204 kts | 205° |
| 2026-04-27 20:52 | 42.89389 | 12.37553 | 7033 ft | 205 kts | 206° |
| 2026-04-27 20:52 | 42.88131 | 12.36681 | 7350 ft | 206 kts | 206° |
| 2026-04-27 20:52 | 42.86852 | 12.35797 | 7672 ft | 206 kts | 206° |
| 2026-04-27 20:53 | 42.85562 | 12.34906 | 7989 ft | 211 kts | 206° |
| 2026-04-27 20:53 | 42.84236 | 12.33992 | 8319 ft | 215 kts | 206° |
| 2026-04-27 20:53 | 42.82891 | 12.33063 | 8657 ft | 218 kts | 206° |
| 2026-04-27 20:53 | 42.81524 | 12.32118 | 8993 ft | 221 kts | 206° |
| 2026-04-27 20:54 | 42.79033 | 12.29697 | 9663 ft | 224 kts | 230° |
| 2026-04-27 20:54 | 42.78057 | 12.28073 | 9999 ft | 224 kts | 228° |
| 2026-04-27 20:54 | 42.76967 | 12.26543 | 10312 ft | 225 kts | 223° |
| 2026-04-27 20:55 | 42.75843 | 12.25053 | 10620 ft | 229 kts | 224° |
| 2026-04-27 20:55 | 42.74671 | 12.23387 | 10943 ft | 253 kts | 227° |
| 2026-04-27 20:55 | 42.73483 | 12.21602 | 11272 ft | 256 kts | 227° |
| 2026-04-27 20:55 | 42.72271 | 12.19798 | 11601 ft | 259 kts | 227° |
| 2026-04-27 20:56 | 42.71026 | 12.18011 | 11934 ft | 261 kts | 226° |
| 2026-04-27 20:56 | 42.69773 | 12.16247 | 12265 ft | 263 kts | 226° |
| 2026-04-27 20:56 | 42.68506 | 12.14444 | 12597 ft | 265 kts | 227° |
| 2026-04-27 20:56 | 42.67242 | 12.12616 | 12931 ft | 266 kts | 227° |
| 2026-04-27 20:57 | 42.65972 | 12.10778 | 13268 ft | 267 kts | 227° |
| 2026-04-27 20:57 | 42.64689 | 12.08940 | 13610 ft | 268 kts | 227° |
| 2026-04-27 20:57 | 42.63393 | 12.07099 | 13949 ft | 269 kts | 227° |
| 2026-04-27 20:57 | 42.62031 | 12.05359 | 14241 ft | 271 kts | 214° |
| 2026-04-27 20:58 | 42.60229 | 12.04651 | 14537 ft | 272 kts | 185° |
| 2026-04-27 20:58 | 42.58322 | 12.04508 | 14847 ft | 273 kts | 183° |
| 2026-04-27 20:58 | 42.56476 | 12.04275 | 15156 ft | 260 kts | 188° |
| 2026-04-27 20:58 | 42.54714 | 12.03929 | 15468 ft | 255 kts | 188° |
| 2026-04-27 20:59 | 42.52934 | 12.03659 | 15787 ft | 262 kts | 186° |
| 2026-04-27 20:59 | 42.51089 | 12.03483 | 16107 ft | 273 kts | 184° |
| 2026-04-27 20:59 | 42.49170 | 12.03308 | 16438 ft | 283 kts | 185° |
| 2026-04-27 20:59 | 42.47173 | 12.03065 | 16773 ft | 294 kts | 187° |
| 2026-04-27 21:00 | 42.45101 | 12.02769 | 17115 ft | 304 kts | 187° |
| 2026-04-27 21:00 | 42.42968 | 12.02469 | 17460 ft | 312 kts | 187° |
| 2026-04-27 21:00 | 42.40781 | 12.02196 | 17809 ft | 318 kts | 186° |
| 2026-04-27 21:00 | 42.38548 | 12.01945 | 18157 ft | 323 kts | 186° |
| 2026-04-27 21:01 | 42.36293 | 12.01687 | 18493 ft | 327 kts | 186° |
| 2026-04-27 21:01 | 42.34014 | 12.01397 | 18797 ft | 331 kts | 187° |
| 2026-04-27 21:01 | 42.31708 | 12.01084 | 19090 ft | 335 kts | 187° |
| 2026-04-27 21:01 | 42.29376 | 12.00769 | 19115 ft | 347 kts | 187° |
| 2026-04-27 21:02 | 42.26935 | 12.00458 | 19119 ft | 357 kts | 186° |
| 2026-04-27 21:02 | 42.24433 | 12.00158 | 19123 ft | 364 kts | 186° |
| 2026-04-27 21:02 | 42.21884 | 11.99862 | 19125 ft | 370 kts | 186° |
| 2026-04-27 21:02 | 42.19307 | 11.99552 | 19125 ft | 374 kts | 186° |
| 2026-04-27 21:03 | 42.16702 | 11.99217 | 19186 ft | 377 kts | 187° |
| 2026-04-27 21:03 | 42.14082 | 11.98868 | 19197 ft | 379 kts | 187° |
| 2026-04-27 21:03 | 42.11447 | 11.98523 | 19208 ft | 381 kts | 186° |
| 2026-04-27 21:03 | 42.08796 | 11.98198 | 19218 ft | 382 kts | 186° |
| 2026-04-27 21:04 | 42.06144 | 11.97894 | 19227 ft | 383 kts | 186° |
| 2026-04-27 21:04 | 42.03480 | 11.97587 | 19237 ft | 384 kts | 186° |
| 2026-04-27 21:04 | 42.00848 | 11.97263 | 19244 ft | 384 kts | 186° |
| 2026-04-27 21:04 | 41.98187 | 11.96913 | 19246 ft | 384 kts | 187° |
| 2026-04-27 21:05 | 41.95516 | 11.96556 | 19248 ft | 385 kts | 187° |
| 2026-04-27 21:05 | 41.92839 | 11.96216 | 19247 ft | 385 kts | 186° |
| 2026-04-27 21:05 | 41.90165 | 11.95902 | 19242 ft | 385 kts | 186° |
| 2026-04-27 21:05 | 41.87489 | 11.95600 | 19235 ft | 385 kts | 186° |
| 2026-04-27 21:06 | 41.84850 | 11.95291 | 19225 ft | 385 kts | 186° |
| 2026-04-27 21:06 | 41.82177 | 11.94951 | 19215 ft | 385 kts | 187° |
| 2026-04-27 21:06 | 41.79512 | 11.94594 | 19203 ft | 385 kts | 187° |
| 2026-04-27 21:06 | 41.76842 | 11.94241 | 19184 ft | 385 kts | 186° |
| 2026-04-27 21:07 | 41.74176 | 11.93915 | 19173 ft | 385 kts | 186° |
| 2026-04-27 21:07 | 41.71505 | 11.93612 | 19159 ft | 385 kts | 186° |
| 2026-04-27 21:07 | 41.68866 | 11.93319 | 19144 ft | 371 kts | 186° |
| 2026-04-27 21:07 | 41.66360 | 11.93025 | 19127 ft | 352 kts | 186° |
| 2026-04-27 21:08 | 41.63981 | 11.92718 | 19112 ft | 337 kts | 187° |
| 2026-04-27 21:08 | 41.61696 | 11.92404 | 19100 ft | 324 kts | 187° |
| 2026-04-27 21:08 | 41.59480 | 11.92093 | 19100 ft | 315 kts | 187° |
| 2026-04-27 21:08 | 41.57324 | 11.91826 | 19106 ft | 307 kts | 186° |
| 2026-04-27 21:09 | 41.55922 | 11.91676 | 19105 ft | 303 kts | 186° |
| 2026-04-27 21:09 | 41.53835 | 11.91466 | 19103 ft | 298 kts | 186° |
| 2026-04-27 21:09 | 41.51786 | 11.91234 | 19105 ft | 293 kts | 187° |
| 2026-04-27 21:09 | 41.49766 | 11.90967 | 19104 ft | 289 kts | 187° |
| 2026-04-27 21:10 | 41.47769 | 11.90698 | 19110 ft | 286 kts | 187° |
| 2026-04-27 21:10 | 41.45789 | 11.90456 | 19108 ft | 284 kts | 186° |
| 2026-04-27 21:10 | 41.43824 | 11.90237 | 19108 ft | 282 kts | 186° |
| 2026-04-27 21:10 | 41.41890 | 11.90015 | 19109 ft | 282 kts | 186° |
| 2026-04-27 21:11 | 41.39926 | 11.89771 | 19111 ft | 285 kts | 187° |
| 2026-04-27 21:11 | 41.37943 | 11.89517 | 19116 ft | 287 kts | 187° |
| 2026-04-27 21:11 | 41.35943 | 11.89269 | 19117 ft | 289 kts | 186° |
| 2026-04-27 21:11 | 41.33937 | 11.89031 | 19119 ft | 290 kts | 186° |
| 2026-04-27 21:12 | 41.31921 | 11.88797 | 19125 ft | 291 kts | 186° |
| 2026-04-27 21:12 | 41.29900 | 11.88555 | 19127 ft | 292 kts | 186° |
| 2026-04-27 21:12 | 41.27896 | 11.88305 | 19128 ft | 293 kts | 186° |
| 2026-04-27 21:12 | 41.25865 | 11.88052 | 19129 ft | 293 kts | 186° |
| 2026-04-27 21:13 | 41.23831 | 11.87807 | 19127 ft | 294 kts | 186° |
| 2026-04-27 21:13 | 41.21793 | 11.87568 | 19127 ft | 294 kts | 186° |
| 2026-04-27 21:13 | 41.19753 | 11.87327 | 19128 ft | 294 kts | 186° |
| 2026-04-27 21:13 | 41.17704 | 11.87076 | 19128 ft | 295 kts | 186° |
| 2026-04-27 21:14 | 41.15661 | 11.86822 | 19131 ft | 295 kts | 186° |
| 2026-04-27 21:14 | 41.13609 | 11.86572 | 19131 ft | 295 kts | 186° |
| 2026-04-27 21:14 | 41.11564 | 11.86330 | 19131 ft | 295 kts | 186° |
| 2026-04-27 21:14 | 41.09541 | 11.86093 | 19132 ft | 295 kts | 186° |
| 2026-04-27 21:15 | 41.07494 | 11.85847 | 19131 ft | 295 kts | 186° |
| 2026-04-27 21:15 | 41.05439 | 11.85594 | 19132 ft | 295 kts | 186° |
| 2026-04-27 21:15 | 41.03391 | 11.85342 | 19132 ft | 295 kts | 186° |
| 2026-04-27 21:15 | 41.01350 | 11.85100 | 19132 ft | 295 kts | 186° |
| 2026-04-27 21:16 | 40.99283 | 11.84858 | 19132 ft | 296 kts | 186° |
| 2026-04-27 21:16 | 40.97259 | 11.84617 | 19132 ft | 296 kts | 186° |
| 2026-04-27 21:16 | 40.95209 | 11.84369 | 19132 ft | 296 kts | 186° |
| 2026-04-27 21:16 | 40.93149 | 11.84120 | 19127 ft | 295 kts | 186° |
| 2026-04-27 21:17 | 40.91089 | 11.83875 | 19127 ft | 295 kts | 186° |
| 2026-04-27 21:17 | 40.89054 | 11.83632 | 19127 ft | 295 kts | 186° |
| 2026-04-27 21:17 | 40.87022 | 11.83388 | 19127 ft | 295 kts | 186° |
| 2026-04-27 21:17 | 40.84973 | 11.83286 | 19124 ft | 296 kts | 179° |
| 2026-04-27 21:18 | 40.82922 | 11.83502 | 19127 ft | 296 kts | 175° |
| 2026-04-27 21:18 | 40.80838 | 11.83708 | 19126 ft | 296 kts | 179° |
| 2026-04-27 21:18 | 40.78803 | 11.83743 | 19126 ft | 295 kts | 181° |
| 2026-04-27 21:18 | 40.76754 | 11.83763 | 19126 ft | 295 kts | 180° |
| 2026-04-27 21:19 | 40.74701 | 11.83885 | 19124 ft | 296 kts | 177° |
| 2026-04-27 21:19 | 40.72653 | 11.84080 | 19123 ft | 296 kts | 177° |
| 2026-04-27 21:19 | 40.70593 | 11.84256 | 19124 ft | 295 kts | 178° |
| 2026-04-27 21:20 | 40.66480 | 11.84433 | 19121 ft | 295 kts | 180° |
| 2026-04-27 21:20 | 40.64422 | 11.84532 | 19121 ft | 295 kts | 179° |
| 2026-04-27 21:20 | 40.62365 | 11.84675 | 19121 ft | 295 kts | 178° |
| 2026-04-27 21:20 | 40.60333 | 11.84828 | 19121 ft | 295 kts | 178° |
| 2026-04-27 21:21 | 40.58276 | 11.84957 | 19121 ft | 295 kts | 179° |
| 2026-04-27 21:21 | 40.56224 | 11.85057 | 19124 ft | 295 kts | 179° |
| 2026-04-27 21:21 | 40.54156 | 11.85160 | 19124 ft | 295 kts | 179° |
| 2026-04-27 21:21 | 40.52095 | 11.85284 | 19121 ft | 295 kts | 178° |
| 2026-04-27 21:22 | 40.50043 | 11.85424 | 19122 ft | 295 kts | 178° |
| 2026-04-27 21:22 | 40.48013 | 11.85555 | 19122 ft | 295 kts | 179° |
| 2026-04-27 21:22 | 40.45965 | 11.85668 | 19122 ft | 295 kts | 179° |
| 2026-04-27 21:22 | 40.43913 | 11.85774 | 19122 ft | 295 kts | 179° |
| 2026-04-27 21:23 | 40.41858 | 11.85891 | 19124 ft | 295 kts | 179° |
| 2026-04-27 21:23 | 40.39830 | 11.86020 | 19119 ft | 295 kts | 178° |
| 2026-04-27 21:23 | 40.37760 | 11.86154 | 19122 ft | 295 kts | 179° |
| 2026-04-27 21:23 | 40.35712 | 11.86273 | 19122 ft | 295 kts | 179° |
| 2026-04-27 21:24 | 40.33679 | 11.86382 | 19120 ft | 295 kts | 179° |
| 2026-04-27 21:24 | 40.31639 | 11.86495 | 19120 ft | 294 kts | 179° |
| 2026-04-27 21:24 | 40.29570 | 11.86621 | 19121 ft | 294 kts | 178° |
| 2026-04-27 21:24 | 40.27543 | 11.86749 | 19122 ft | 294 kts | 178° |
| 2026-04-27 21:25 | 40.25496 | 11.86872 | 19120 ft | 294 kts | 179° |
| 2026-04-27 21:25 | 40.23457 | 11.86986 | 19120 ft | 294 kts | 179° |
| 2026-04-27 21:25 | 40.21404 | 11.87098 | 19120 ft | 294 kts | 179° |
| 2026-04-27 21:25 | 40.19370 | 11.87217 | 19125 ft | 294 kts | 178° |
| 2026-04-27 21:26 | 40.17316 | 11.87344 | 19119 ft | 294 kts | 178° |
| 2026-04-27 21:26 | 40.15282 | 11.87469 | 19119 ft | 294 kts | 178° |
| 2026-04-27 21:26 | 40.13239 | 11.87587 | 19119 ft | 294 kts | 179° |
| 2026-04-27 21:26 | 40.11194 | 11.87699 | 19119 ft | 294 kts | 179° |
| 2026-04-27 21:27 | 40.09149 | 11.87814 | 19120 ft | 294 kts | 179° |
| 2026-04-27 21:27 | 40.07110 | 11.87937 | 19122 ft | 294 kts | 178° |
| 2026-04-27 21:27 | 40.05062 | 11.88064 | 19122 ft | 294 kts | 178° |
| 2026-04-27 21:27 | 40.03027 | 11.88184 | 19121 ft | 294 kts | 179° |
| 2026-04-27 21:28 | 40.00971 | 11.88298 | 19120 ft | 294 kts | 179° |
| 2026-04-27 21:28 | 39.98914 | 11.88412 | 19120 ft | 294 kts | 179° |
| 2026-04-27 21:28 | 39.96899 | 11.88529 | 19120 ft | 294 kts | 178° |
| 2026-04-27 21:28 | 39.94841 | 11.88656 | 19121 ft | 294 kts | 178° |
| 2026-04-27 21:29 | 39.92798 | 11.88779 | 19114 ft | 294 kts | 178° |
| 2026-04-27 21:29 | 39.90745 | 11.88897 | 18949 ft | 296 kts | 179° |
| 2026-04-27 21:29 | 39.88685 | 11.89012 | 18786 ft | 297 kts | 179° |
| 2026-04-27 21:29 | 39.86627 | 11.89253 | 18616 ft | 299 kts | 168° |
| 2026-04-27 21:30 | 39.84686 | 11.90241 | 18450 ft | 300 kts | 154° |
| 2026-04-27 21:30 | 39.82842 | 11.91518 | 18270 ft | 300 kts | 153° |
| 2026-04-27 21:30 | 39.80958 | 11.92689 | 18083 ft | 300 kts | 158° |
| 2026-04-27 21:30 | 39.79005 | 11.93644 | 17898 ft | 299 kts | 161° |
| 2026-04-27 21:31 | 39.77078 | 11.94575 | 17720 ft | 300 kts | 159° |
| 2026-04-27 21:31 | 39.75162 | 11.95646 | 17533 ft | 300 kts | 156° |
| 2026-04-27 21:31 | 39.73257 | 11.96827 | 17383 ft | 299 kts | 155° |
| 2026-04-27 21:31 | 39.71404 | 11.97963 | 17254 ft | 297 kts | 156° |
| 2026-04-27 21:32 | 39.69511 | 11.99021 | 17127 ft | 296 kts | 159° |
| 2026-04-27 21:32 | 39.67607 | 12.00015 | 16998 ft | 295 kts | 159° |
| 2026-04-27 21:32 | 39.65708 | 12.01025 | 16869 ft | 294 kts | 158° |
| 2026-04-27 21:32 | 39.63830 | 12.02092 | 16742 ft | 293 kts | 157° |
| 2026-04-27 21:33 | 39.61971 | 12.03187 | 16612 ft | 293 kts | 156° |
| 2026-04-27 21:33 | 39.60108 | 12.04261 | 16486 ft | 292 kts | 157° |
| 2026-04-27 21:33 | 39.58241 | 12.05290 | 16361 ft | 292 kts | 158° |
| 2026-04-27 21:33 | 39.56392 | 12.06288 | 16237 ft | 292 kts | 158° |
| 2026-04-27 21:34 | 39.54525 | 12.07316 | 16110 ft | 291 kts | 158° |
| 2026-04-27 21:34 | 39.52665 | 12.08372 | 15985 ft | 291 kts | 157° |
| 2026-04-27 21:34 | 39.50805 | 12.09438 | 15862 ft | 291 kts | 157° |
| 2026-04-27 21:34 | 39.48949 | 12.10483 | 15739 ft | 291 kts | 158° |
| 2026-04-27 21:35 | 39.47084 | 12.11508 | 15615 ft | 291 kts | 158° |
| 2026-04-27 21:35 | 39.45221 | 12.12527 | 15493 ft | 290 kts | 158° |
| 2026-04-27 21:35 | 39.43362 | 12.13559 | 15369 ft | 290 kts | 157° |
| 2026-04-27 21:35 | 39.41526 | 12.14595 | 15179 ft | 293 kts | 157° |
| 2026-04-27 21:36 | 39.39651 | 12.15657 | 14961 ft | 295 kts | 157° |
| 2026-04-27 21:36 | 39.37757 | 12.16716 | 14745 ft | 297 kts | 158° |
| 2026-04-27 21:36 | 39.35853 | 12.17765 | 14533 ft | 298 kts | 158° |
| 2026-04-27 21:36 | 39.33941 | 12.18815 | 14322 ft | 299 kts | 158° |
| 2026-04-27 21:37 | 39.32027 | 12.19870 | 14114 ft | 299 kts | 158° |
| 2026-04-27 21:37 | 39.30114 | 12.20938 | 13902 ft | 300 kts | 158° |
| 2026-04-27 21:37 | 39.28201 | 12.22011 | 13667 ft | 300 kts | 158° |
| 2026-04-27 21:37 | 39.26281 | 12.23082 | 13422 ft | 300 kts | 158° |
| 2026-04-27 21:38 | 39.24364 | 12.24139 | 13196 ft | 299 kts | 158° |
| 2026-04-27 21:38 | 39.22449 | 12.25188 | 12964 ft | 299 kts | 158° |
| 2026-04-27 21:38 | 39.20531 | 12.26241 | 12733 ft | 299 kts | 158° |
| 2026-04-27 21:38 | 39.18646 | 12.27285 | 12505 ft | 298 kts | 158° |
| 2026-04-27 21:39 | 39.16739 | 12.28349 | 12275 ft | 298 kts | 157° |
| 2026-04-27 21:39 | 39.14834 | 12.29412 | 12048 ft | 297 kts | 158° |
| 2026-04-27 21:39 | 39.12935 | 12.30463 | 11822 ft | 297 kts | 158° |
| 2026-04-27 21:39 | 39.11036 | 12.31504 | 11600 ft | 296 kts | 158° |
| 2026-04-27 21:40 | 39.09132 | 12.32541 | 11379 ft | 296 kts | 158° |
| 2026-04-27 21:40 | 39.07238 | 12.33577 | 11167 ft | 295 kts | 158° |
| 2026-04-27 21:40 | 39.05371 | 12.34607 | 10945 ft | 295 kts | 158° |
| 2026-04-27 21:40 | 39.03490 | 12.35652 | 10730 ft | 294 kts | 158° |
| 2026-04-27 21:41 | 39.01611 | 12.36696 | 10509 ft | 294 kts | 158° |
| 2026-04-27 21:41 | 38.99732 | 12.37730 | 10285 ft | 293 kts | 158° |
| 2026-04-27 21:41 | 38.97855 | 12.38754 | 10080 ft | 292 kts | 158° |
| 2026-04-27 21:41 | 38.95980 | 12.39773 | 9851 ft | 292 kts | 158° |
| 2026-04-27 21:42 | 38.94111 | 12.40794 | 9626 ft | 291 kts | 158° |
| 2026-04-27 21:42 | 38.92246 | 12.41823 | 9392 ft | 291 kts | 158° |
| 2026-04-27 21:42 | 38.90416 | 12.42839 | 9151 ft | 290 kts | 158° |
| 2026-04-27 21:42 | 38.88561 | 12.43866 | 8926 ft | 290 kts | 158° |
| 2026-04-27 21:43 | 38.86711 | 12.44885 | 8695 ft | 289 kts | 157° |
| 2026-04-27 21:43 | 38.84888 | 12.45973 | 8470 ft | 289 kts | 156° |
| 2026-04-27 21:43 | 38.83072 | 12.47073 | 8246 ft | 288 kts | 155° |
| 2026-04-27 21:43 | 38.81262 | 12.48167 | 8126 ft | 284 kts | 155° |
| 2026-04-27 21:44 | 38.79492 | 12.49227 | 8124 ft | 277 kts | 156° |
| 2026-04-27 21:44 | 38.77758 | 12.50255 | 8121 ft | 273 kts | 156° |
| 2026-04-27 21:44 | 38.76044 | 12.51280 | 8119 ft | 270 kts | 156° |
| 2026-04-27 21:44 | 38.74340 | 12.52310 | 7962 ft | 274 kts | 155° |
| 2026-04-27 21:45 | 38.72595 | 12.53374 | 7731 ft | 280 kts | 155° |
| 2026-04-27 21:45 | 38.70851 | 12.54428 | 7521 ft | 281 kts | 155° |
| 2026-04-27 21:45 | 38.69078 | 12.55487 | 7304 ft | 281 kts | 156° |
| 2026-04-27 21:45 | 38.67303 | 12.56538 | 7088 ft | 281 kts | 156° |
| 2026-04-27 21:46 | 38.65528 | 12.57591 | 6865 ft | 281 kts | 156° |
| 2026-04-27 21:46 | 38.63759 | 12.58664 | 6651 ft | 281 kts | 155° |
| 2026-04-27 21:46 | 38.61993 | 12.59734 | 6432 ft | 280 kts | 155° |
| 2026-04-27 21:46 | 38.60233 | 12.60783 | 6201 ft | 279 kts | 156° |
| 2026-04-27 21:47 | 38.58478 | 12.61820 | 5977 ft | 278 kts | 156° |
| 2026-04-27 21:47 | 38.56723 | 12.62857 | 5751 ft | 276 kts | 155° |
| 2026-04-27 21:47 | 38.54981 | 12.63897 | 5528 ft | 274 kts | 155° |
| 2026-04-27 21:47 | 38.53294 | 12.64915 | 5298 ft | 263 kts | 155° |
| 2026-04-27 21:48 | 38.51684 | 12.65887 | 5118 ft | 255 kts | 155° |
| 2026-04-27 21:48 | 38.50120 | 12.66822 | 5112 ft | 242 kts | 155° |
| 2026-04-27 21:48 | 38.48615 | 12.67709 | 5105 ft | 234 kts | 155° |
| 2026-04-27 21:48 | 38.47152 | 12.68573 | 5102 ft | 230 kts | 155° |
| 2026-04-27 21:49 | 38.45706 | 12.69438 | 5099 ft | 229 kts | 155° |
| 2026-04-27 21:49 | 38.44271 | 12.70303 | 5099 ft | 228 kts | 155° |
| 2026-04-27 21:49 | 38.42835 | 12.71163 | 5099 ft | 227 kts | 155° |
| 2026-04-27 21:49 | 38.41401 | 12.72014 | 5099 ft | 226 kts | 156° |
| 2026-04-27 21:50 | 38.39996 | 12.72849 | 5095 ft | 225 kts | 156° |
| 2026-04-27 21:50 | 38.38578 | 12.73689 | 5097 ft | 225 kts | 156° |
| 2026-04-27 21:50 | 38.37161 | 12.74532 | 5096 ft | 224 kts | 155° |
| 2026-04-27 21:50 | 38.35761 | 12.75416 | 5094 ft | 224 kts | 149° |
| 2026-04-27 21:51 | 38.34805 | 12.76955 | 5099 ft | 227 kts | 111° |
| 2026-04-27 21:51 | 38.34659 | 12.78948 | 5096 ft | 229 kts | 79° |
| 2026-04-27 21:51 | 38.35258 | 12.80845 | 5104 ft | 235 kts | 63° |
| 2026-04-27 21:51 | 38.36007 | 12.82746 | 5113 ft | 243 kts | 64° |
| 2026-04-27 21:52 | 38.36651 | 12.84730 | 5113 ft | 248 kts | 69° |
| 2026-04-27 21:52 | 38.37261 | 12.86803 | 5112 ft | 251 kts | 69° |
| 2026-04-27 21:52 | 38.37924 | 12.88866 | 5116 ft | 252 kts | 66° |
| 2026-04-27 21:52 | 38.38647 | 12.90915 | 5112 ft | 254 kts | 65° |
| 2026-04-27 21:53 | 38.39329 | 12.92992 | 5111 ft | 255 kts | 75° |
| 2026-04-27 21:53 | 38.39186 | 12.95205 | 5101 ft | 255 kts | 112° |
| 2026-04-27 21:53 | 38.38228 | 12.97079 | 5097 ft | 253 kts | 137° |
| 2026-04-27 21:53 | 38.37547 | 12.97702 | 5097 ft | 252 kts | 153° |
| 2026-04-27 21:54 | 38.35460 | 12.98787 | 5095 ft | 251 kts | 161° |
| 2026-04-27 21:54 | 38.33822 | 12.99633 | 4945 ft | 256 kts | 161° |
| 2026-04-27 21:54 | 38.32072 | 12.99993 | 4788 ft | 257 kts | 187° |
| 2026-04-27 21:54 | 38.30495 | 12.98999 | 4621 ft | 258 kts | 226° |
| 2026-04-27 21:55 | 38.29826 | 12.97715 | 4517 ft | 259 kts | 244° |
| 2026-04-27 21:55 | 38.29245 | 12.95552 | 4374 ft | 259 kts | 255° |
| 2026-04-27 21:55 | 38.28787 | 12.93363 | 4227 ft | 259 kts | 253° |
| 2026-04-27 21:55 | 38.28109 | 12.91235 | 4074 ft | 260 kts | 244° |
| 2026-04-27 21:56 | 38.27261 | 12.89202 | 3926 ft | 260 kts | 241° |
| 2026-04-27 21:56 | 38.25633 | 12.85094 | 3629 ft | 255 kts | 245° |
| 2026-04-27 21:56 | 38.24728 | 12.83394 | 3467 ft | 219 kts | 217° |
| 2026-04-27 21:57 | 38.23332 | 12.82929 | 3295 ft | 204 kts | 178° |
| 2026-04-27 21:57 | 38.21993 | 12.83361 | 3132 ft | 197 kts | 155° |
| 2026-04-27 21:57 | 38.20778 | 12.84092 | 3105 ft | 189 kts | 154° |
| 2026-04-27 21:57 | 38.19580 | 12.84728 | 3100 ft | 185 kts | 158° |
| 2026-04-27 21:58 | 38.18381 | 12.85326 | 3097 ft | 184 kts | 157° |
| 2026-04-27 21:58 | 38.17219 | 12.85941 | 3094 ft | 183 kts | 156° |
| 2026-04-27 21:58 | 38.16046 | 12.86585 | 3093 ft | 183 kts | 156° |
| 2026-04-27 21:58 | 38.14879 | 12.87225 | 3093 ft | 182 kts | 156° |
| 2026-04-27 21:59 | 38.13712 | 12.87854 | 3093 ft | 182 kts | 156° |
| 2026-04-27 21:59 | 38.12582 | 12.88560 | 3090 ft | 175 kts | 142° |
| 2026-04-27 21:59 | 38.11912 | 12.89738 | 3093 ft | 163 kts | 114° |
| 2026-04-27 21:59 | 38.11683 | 12.91076 | 3099 ft | 148 kts | 87° |
| 2026-04-27 22:00 | 38.11925 | 12.92307 | 3019 ft | 141 kts | 68° |
| 2026-04-27 22:00 | 38.12326 | 12.93420 | 2837 ft | 137 kts | 65° |
| 2026-04-27 22:00 | 38.12720 | 12.94530 | 2663 ft | 144 kts | 66° |
| 2026-04-27 22:00 | 38.13134 | 12.95686 | 2518 ft | 141 kts | 66° |
| 2026-04-27 22:01 | 38.13538 | 12.96834 | 2228 ft | 143 kts | 66° |
| 2026-04-27 22:01 | 38.13953 | 12.98025 | 1982 ft | 152 kts | 67° |
| 2026-04-27 22:01 | 38.14357 | 12.99271 | 1781 ft | 153 kts | 69° |
| 2026-04-27 22:01 | 38.14755 | 13.00542 | 1577 ft | 156 kts | 69° |
| 2026-04-27 22:02 | 38.15150 | 13.01857 | 1328 ft | 161 kts | 69° |
| 2026-04-27 22:02 | 38.15569 | 13.03185 | 1090 ft | 163 kts | 68° |
| 2026-04-27 22:02 | 38.15998 | 13.04462 | 794 ft | 154 kts | 67° |
| 2026-04-27 22:02 | 38.16412 | 13.05670 | 563 ft | 144 kts | 67° |
| 2026-04-27 22:03 | 38.16818 | 13.06811 | 430 ft | 140 kts | 68° |
| 2026-04-27 22:03 | 38.17194 | 13.07947 | 232 ft | 138 kts | 68° |
| 2026-04-27 22:03 | 38.17567 | 13.09035 | 67 ft | 122 kts | 67° |
| 2026-04-27 22:03 | 38.17816 | 13.09790 | 65 ft | 54 kts | 68° |
| 2026-04-27 22:04 | 38.17931 | 13.10135 | 61 ft | 44 kts | 66° |
| 2026-04-27 22:04 | 38.18043 | 13.10469 | 62 ft | 38 kts | 66° |
| 2026-04-27 22:04 | 38.18112 | 13.10675 | 61 ft | 15 kts | 66° |
| 2026-04-27 22:04 | 38.18171 | 13.10691 | 64 ft | 15 kts | 282° |
| 2026-04-27 22:05 | 38.18186 | 13.10541 | 61 ft | 19 kts | 277° |
| 2026-04-27 22:05 | 38.18224 | 13.10383 | 56 ft | 20 kts | 332° |
| 2026-04-27 22:05 | 38.18304 | 13.10399 | 59 ft | 9 kts | 66° |
| 2026-04-27 22:05 | 38.18327 | 13.10462 | 55 ft | 7 kts | 60° |
| 2026-04-27 22:06 | 38.18379 | 13.10497 | 59 ft | 10 kts | 20° |
| 2026-04-27 22:06 | 38.18445 | 13.10542 | 55 ft | 12 kts | 59° |
| 2026-04-27 22:06 | 38.18473 | 13.10619 | 55 ft | 5 kts | 63° |
| 2026-04-27 22:06 | 38.18514 | 13.10627 | 59 ft | 7 kts | 335° |
| 2026-04-27 22:07 | 38.18547 | 13.10610 | 58 ft | 3 kts | 334° |
| 2026-04-27 22:07 | 38.18557 | 13.10605 | 59 ft | 0 kts | 336° |